Bladen County Hospital, NC

11:49 AM EST on November 24, 2014 (GMT -0500)
Elizabethtown | Change Station
CLOSE
Current Station
Airport
Location: Elizabethtown,
Elevation: 131 ft
Nearby Weather Stations

Elev 131 ft 34.60 °N, 78.58 °W | Updated 14 minutes ago

Heavy Rain
Heavy Rain
68 °F
Feels Like 68 °F
N
5
Wind Variable Wind from SSW

Today
High -- | Low -- °F
--% Chance of Precip.
Yesterday
High -- | Low -- °F
Precip. -- in
6:56 AM 5:05 PM
Waxing Crescent, 6% visible
Pressure 29.87 in
Visibility 2.5 miles
Clouds Mostly Cloudy 700 ft
Overcast 1100 ft
Dew Point 68 °F
Humidity 100%
Rainfall 0.04 in
Snow Depth Not available.
UV 1 out of 12
Pollen .30 out of 12
Air Quality Not available.
Flu Activity Not available.
METAR KEYF 241635Z AUTO 21004KT 2 1/2SM +RA BKN007 OVC011 20/20 A2987 RMK AO2 P0001 T02010201

More Conditions Fewer Conditions

Pressure 29.87 in
Visibility 2.5 miles
Clouds Mostly Cloudy 700 ft
Overcast 1100 ft
Dew Point 68 °F
Humidity 100%
Rainfall 0.04 in
Snow Depth Not available.
UV 1 out of 12
Pollen .30 out of 12
Air Quality Not available.
Flu Activity Not available.
METAR KEYF 241635Z AUTO 21004KT 2 1/2SM +RA BKN007 OVC011 20/20 A2987 RMK AO2 P0001 T02010201

More Conditions Fewer Conditions

10-Day Weather Forecast

Almanac

Astronomy

Nov. 24, 2014 Rise Set
Actual Time
Civil Twilight
Nautical Twilight
Astronomical Twilight
Moon
Length of Visible Light
Length of Day
Tomorrow will be .
, % of the Moon is Illuminated

Today's Extremes

State Highs State Lows

Community

WunderPhotos

Upload Photos

1,773,369 photos uploaded!

WunderBlogs® & News

Nearby

Air Quality

  Air Quality AQ Index Pollutant
Not available.

Snow Depth

Station Depth Elevation

Earthquake Activity

City Distance Mag. Time & Date
Minimum magnitude displayed is 2.5.

Coastal Water Temperatures

Place Temperature

Nearby Weather Stations